createdAt,value
2023-03-05T00:01:24.856Z,70.78
2023-03-05T00:03:53.461Z,71.01
2023-03-05T00:06:21.612Z,70.82
2023-03-05T00:08:49.563Z,70.58
2023-03-05T00:11:17.595Z,71.01
2023-03-05T00:13:45.232Z,71.16
2023-03-05T00:16:16.659Z,71.00
2023-03-05T00:18:44.830Z,70.88
2023-03-05T00:21:20.173Z,71.23
2023-03-05T00:23:47.935Z,71.19
2023-03-05T00:26:15.629Z,70.57
2023-03-05T00:28:43.496Z,71.10
2023-03-05T00:31:11.150Z,71.86
2023-03-05T00:33:40.146Z,71.79
2023-03-05T00:36:08.864Z,72.18
2023-03-05T00:38:36.656Z,72.18
2023-03-05T00:41:04.642Z,72.19
2023-03-05T00:43:32.463Z,71.91
2023-03-05T00:46:00.099Z,72.30
2023-03-05T00:48:27.886Z,72.82
2023-03-05T00:50:57.186Z,72.00
2023-03-05T00:53:24.876Z,72.08
2023-03-05T00:55:52.607Z,72.33
2023-03-05T00:58:20.187Z,72.39
2023-03-05T01:00:50.457Z,72.29
2023-03-05T01:03:18.216Z,72.32
2023-03-05T01:05:46.354Z,72.14
2023-03-05T01:08:15.897Z,71.89
2023-03-05T01:10:43.559Z,71.93
2023-03-05T01:13:11.152Z,72.35
2023-03-05T01:15:38.807Z,72.28
2023-03-05T01:18:06.795Z,72.55
2023-03-05T01:20:34.361Z,72.18
2023-03-05T01:23:02.121Z,72.50
2023-03-05T01:25:31.128Z,72.74
2023-03-05T01:27:58.885Z,73.07
2023-03-05T01:30:26.432Z,72.73
2023-03-05T01:32:54.111Z,73.13
2023-03-05T01:35:25.029Z,73.02
2023-03-05T01:38:18.692Z,73.20
2023-03-05T01:40:47.891Z,73.06
2023-03-05T01:43:27.940Z,73.22
2023-03-05T01:46:29.074Z,73.38
2023-03-05T01:49:02.729Z,73.81
2023-03-05T01:51:36.301Z,74.09
2023-03-05T01:54:05.910Z,73.78
2023-03-05T01:56:35.288Z,73.76
2023-03-05T01:59:04.455Z,74.43
2023-03-05T02:01:37.809Z,74.52
2023-03-05T02:04:06.556Z,74.66
2023-03-05T02:06:34.881Z,74.42
2023-03-05T02:09:02.548Z,74.22
2023-03-05T02:11:30.624Z,74.10
2023-03-05T02:13:59.812Z,74.15
2023-03-05T02:16:29.171Z,73.59
2023-03-05T02:18:57.007Z,73.85
2023-03-05T02:21:39.029Z,74.14
2023-03-05T02:24:07.492Z,73.81
2023-03-05T02:26:35.463Z,73.73
2023-03-05T02:29:06.473Z,73.68
2023-03-05T02:31:34.286Z,74.39
2023-03-05T02:34:01.994Z,74.17
2023-03-05T02:36:30.959Z,74.61
2023-03-05T02:38:59.106Z,74.40
2023-03-05T02:41:27.313Z,74.48
2023-03-05T02:43:54.986Z,74.79
2023-03-05T02:46:22.615Z,74.62
2023-03-05T02:48:50.862Z,74.08
2023-03-05T02:51:18.981Z,75.16
2023-03-05T02:53:47.976Z,75.58
2023-03-05T02:56:15.571Z,76.15
2023-03-05T02:58:43.243Z,75.72
2023-03-05T03:01:11.626Z,75.11
2023-03-05T03:03:39.566Z,75.07
2023-03-05T03:06:08.763Z,75.50
2023-03-05T03:08:37.562Z,75.21
2023-03-05T03:11:09.358Z,75.47
2023-03-05T03:13:37.230Z,75.72
2023-03-05T03:16:05.929Z,75.46
2023-03-05T03:18:33.782Z,75.06
2023-03-05T03:21:01.792Z,75.08
2023-03-05T03:23:29.432Z,74.82
2023-03-05T03:25:57.092Z,74.81
2023-03-05T03:28:26.657Z,75.01
2023-03-05T03:30:54.420Z,75.08
2023-03-05T03:33:22.391Z,74.62
2023-03-05T03:35:50.094Z,74.98
2023-03-05T03:38:17.721Z,75.09
2023-03-05T03:40:45.394Z,75.20
2023-03-05T03:43:13.035Z,75.43
2023-03-05T03:45:48.728Z,74.76
2023-03-05T03:48:16.592Z,75.13
2023-03-05T03:50:45.203Z,74.96
2023-03-05T03:53:14.187Z,74.63
2023-03-05T03:55:43.251Z,74.67
2023-03-05T03:58:11.308Z,74.97
2023-03-05T04:00:39.925Z,75.39
2023-03-05T04:03:09.000Z,75.25
2023-03-05T04:05:36.679Z,75.46
2023-03-05T04:08:04.586Z,75.56
2023-03-05T04:10:32.209Z,75.90
2023-03-05T04:12:59.830Z,75.53
2023-03-05T04:15:27.463Z,75.94
2023-03-05T04:17:55.158Z,76.38
2023-03-05T04:20:24.163Z,76.13
2023-03-05T04:22:51.798Z,76.18
2023-03-05T04:25:19.388Z,76.18
2023-03-05T04:27:47.003Z,76.36
2023-03-05T04:30:16.017Z,76.75
2023-03-05T04:32:43.661Z,77.19
2023-03-05T04:35:12.123Z,76.77
2023-03-05T04:37:41.414Z,76.76
2023-03-05T04:40:10.098Z,76.26
2023-03-05T04:42:37.741Z,76.41
2023-03-05T04:45:06.742Z,76.54
2023-03-05T04:47:34.818Z,76.87
2023-03-05T04:50:02.481Z,76.65
2023-03-05T04:52:30.240Z,77.04
2023-03-05T04:54:59.281Z,77.50
2023-03-05T04:57:27.035Z,77.16
2023-03-05T04:59:54.681Z,76.78
2023-03-05T05:02:22.378Z,76.82
2023-03-05T05:04:53.495Z,77.40
2023-03-05T05:07:21.287Z,77.49
2023-03-05T05:09:48.907Z,77.54
2023-03-05T05:12:17.957Z,77.57
2023-03-05T05:14:45.524Z,77.50
2023-03-05T05:17:13.101Z,78.23
2023-03-05T05:19:40.768Z,77.73
2023-03-05T05:22:08.732Z,77.54
2023-03-05T05:24:36.429Z,77.78
2023-03-05T05:27:04.266Z,77.73
2023-03-05T05:29:33.280Z,78.13
2023-03-05T05:32:00.974Z,77.63
2023-03-05T05:34:28.619Z,78.18
2023-03-05T05:36:56.209Z,77.51
2023-03-05T05:39:23.797Z,77.48
2023-03-05T05:41:52.199Z,76.77
2023-03-05T05:44:20.312Z,77.10
2023-03-05T05:46:49.406Z,77.02
2023-03-05T05:49:17.003Z,77.54
2023-03-05T05:51:44.749Z,77.43
2023-03-05T05:54:14.365Z,76.88
2023-03-05T05:56:42.313Z,76.28
2023-03-05T05:59:12.187Z,75.89
2023-03-05T06:01:40.021Z,75.61
2023-03-05T06:04:09.131Z,75.82
2023-03-05T06:06:36.810Z,76.11
2023-03-05T06:09:05.354Z,76.73
2023-03-05T06:11:33.956Z,75.50
2023-03-05T06:14:02.890Z,74.87
2023-03-05T06:16:30.969Z,75.67
2023-03-05T06:18:58.976Z,76.65
2023-03-05T06:21:28.001Z,76.52
2023-03-05T06:23:55.676Z,76.53
2023-03-05T06:26:23.984Z,76.59
2023-03-05T06:28:53.255Z,76.23
2023-03-05T06:31:25.620Z,76.52
2023-03-05T06:33:54.819Z,75.54
2023-03-05T06:36:24.134Z,76.02
2023-03-05T06:38:53.672Z,75.90
2023-03-05T06:41:23.197Z,76.30
2023-03-05T06:43:51.229Z,75.50
2023-03-05T06:46:20.894Z,77.05
2023-03-05T06:48:50.015Z,75.04
2023-03-05T06:51:19.650Z,75.52
2023-03-05T06:53:49.485Z,76.44
2023-03-05T06:56:19.499Z,76.27
2023-03-05T06:58:49.234Z,77.14
2023-03-05T07:01:17.965Z,75.10
2023-03-05T07:03:46.071Z,75.51
2023-03-05T07:06:15.847Z,74.73
2023-03-05T07:08:44.710Z,75.55
2023-03-05T07:11:13.497Z,74.36
2023-03-05T07:13:43.401Z,74.68
2023-03-05T07:16:14.513Z,74.65
2023-03-05T07:18:42.553Z,74.28
2023-03-05T07:21:13.167Z,74.49
2023-03-05T07:23:40.776Z,74.82
2023-03-05T07:26:08.550Z,73.93
2023-03-05T07:28:36.258Z,74.09
2023-03-05T07:31:07.988Z,73.97
2023-03-05T07:33:37.094Z,73.64
2023-03-05T07:36:05.291Z,73.79
2023-03-05T07:38:33.332Z,73.29
2023-03-05T07:41:03.407Z,72.99
2023-03-05T07:43:31.065Z,72.42
2023-03-05T07:45:58.763Z,72.51
2023-03-05T07:48:27.856Z,72.49
2023-03-05T07:51:02.147Z,71.74
2023-03-05T07:53:29.909Z,72.50
2023-03-05T07:55:57.682Z,70.83
2023-03-05T07:58:25.363Z,71.04
2023-03-05T08:00:53.025Z,71.42
2023-03-05T08:03:20.688Z,69.71
2023-03-05T08:05:49.680Z,69.11
2023-03-05T08:08:17.573Z,71.07
2023-03-05T08:10:45.401Z,70.46
2023-03-05T08:13:13.109Z,69.15
2023-03-05T08:15:40.972Z,69.77
2023-03-05T08:18:08.776Z,69.51
2023-03-05T08:20:37.257Z,68.59
2023-03-05T08:23:06.248Z,69.25
2023-03-05T08:25:33.882Z,68.69
2023-03-05T08:28:01.557Z,68.76
2023-03-05T08:30:29.319Z,67.66
2023-03-05T08:32:57.398Z,67.24
2023-03-05T08:35:25.431Z,67.53
2023-03-05T08:37:53.150Z,68.99
2023-03-05T08:40:22.180Z,67.42
2023-03-05T08:42:51.903Z,67.55
2023-03-05T08:45:19.658Z,66.99
2023-03-05T08:47:47.406Z,66.70
2023-03-05T08:50:15.082Z,66.57
2023-03-05T08:52:42.707Z,66.64
2023-03-05T08:55:12.597Z,65.89
2023-03-05T08:57:41.611Z,64.59
2023-03-05T09:00:12.570Z,65.65
2023-03-05T09:02:40.405Z,65.39
2023-03-05T09:05:09.171Z,66.45
2023-03-05T09:07:37.784Z,65.66
2023-03-05T09:10:06.848Z,65.29
2023-03-05T09:12:34.517Z,64.49
2023-03-05T09:15:03.535Z,65.04
2023-03-05T09:17:31.286Z,62.98
2023-03-05T09:19:58.908Z,63.40
2023-03-05T09:22:26.635Z,62.66
2023-03-05T09:24:54.546Z,63.28
2023-03-05T09:27:22.600Z,64.28
2023-03-05T09:29:52.507Z,63.58
2023-03-05T09:32:21.617Z,62.96
2023-03-05T09:34:49.263Z,62.12
2023-03-05T09:37:16.921Z,62.40
2023-03-05T09:39:44.677Z,62.00
2023-03-05T09:42:29.302Z,61.38
2023-03-05T09:45:10.794Z,61.70
2023-03-05T09:47:50.553Z,60.94
2023-03-05T09:50:33.803Z,61.78
2023-03-05T09:53:06.039Z,60.74
2023-03-05T09:55:40.414Z,59.53
2023-03-05T09:58:14.585Z,58.85
2023-03-05T10:00:45.171Z,58.64
2023-03-05T10:03:20.571Z,58.46
2023-03-05T10:06:12.003Z,59.01
2023-03-05T10:08:52.296Z,58.80
2023-03-05T10:11:38.547Z,57.69
2023-03-05T10:14:08.242Z,56.90
2023-03-05T10:16:54.096Z,56.54
2023-03-05T10:19:40.855Z,56.49
2023-03-05T10:22:17.053Z,56.83
2023-03-05T10:24:57.434Z,55.76
2023-03-05T10:27:40.732Z,56.68
2023-03-05T10:30:24.508Z,57.66
2023-03-05T10:33:00.776Z,57.06
2023-03-05T10:35:50.245Z,55.28
2023-03-05T10:38:37.355Z,55.88
2023-03-05T10:41:14.795Z,54.84
2023-03-05T10:43:50.784Z,54.12
2023-03-05T10:46:21.955Z,54.25
2023-03-05T10:48:54.308Z,54.37
2023-03-05T10:51:30.671Z,53.74
2023-03-05T10:54:00.710Z,53.92
2023-03-05T10:56:31.820Z,53.48
2023-03-05T10:58:59.670Z,53.06
2023-03-05T11:01:29.490Z,53.30
2023-03-05T11:03:59.253Z,54.33
2023-03-05T11:06:46.666Z,53.51
2023-03-05T11:09:18.724Z,53.56
2023-03-05T11:12:02.669Z,53.58
2023-03-05T11:14:33.332Z,53.55
2023-03-05T11:17:02.412Z,51.70
2023-03-05T11:19:33.087Z,52.44
2023-03-05T11:22:16.872Z,52.59
2023-03-05T11:24:46.566Z,52.29
2023-03-05T11:27:31.643Z,52.10
2023-03-05T11:29:59.771Z,52.16
2023-03-05T11:32:29.814Z,51.26
2023-03-05T11:34:58.241Z,52.73
2023-03-05T11:37:29.498Z,51.29
2023-03-05T11:40:19.026Z,50.92
2023-03-05T11:42:56.939Z,51.37
2023-03-05T11:45:25.910Z,51.77
2023-03-05T11:47:56.999Z,51.58
2023-03-05T11:50:27.631Z,52.10
2023-03-05T11:52:59.097Z,51.84
2023-03-05T11:55:31.007Z,51.45
2023-03-05T11:58:18.385Z,51.59
2023-03-05T12:00:48.279Z,51.09
2023-03-05T12:03:20.005Z,51.52
2023-03-05T12:05:50.683Z,51.83
2023-03-05T12:08:25.617Z,51.52
2023-03-05T12:10:53.808Z,52.35
2023-03-05T12:13:28.328Z,51.64
2023-03-05T12:16:07.417Z,52.27
2023-03-05T12:18:43.437Z,52.03
2023-03-05T12:21:18.850Z,52.90
2023-03-05T12:23:51.322Z,53.57
2023-03-05T12:26:19.803Z,52.72
2023-03-05T12:28:56.852Z,53.65
2023-03-05T12:31:37.772Z,53.53
2023-03-05T12:34:51.409Z,53.48
2023-03-05T12:38:25.691Z,53.80
2023-03-05T12:41:34.277Z,54.88
2023-03-05T12:44:19.359Z,54.28
2023-03-05T12:47:02.439Z,53.22
2023-03-05T12:49:30.729Z,53.55
2023-03-05T12:52:00.058Z,53.98
2023-03-05T12:54:34.384Z,54.65
2023-03-05T12:57:07.190Z,54.56
2023-03-05T12:59:43.979Z,54.30
2023-03-05T13:02:22.853Z,54.87
2023-03-05T13:04:53.118Z,55.01
2023-03-05T13:07:20.857Z,55.25
2023-03-05T13:09:59.016Z,55.30
2023-03-05T13:12:30.704Z,54.92
2023-03-05T13:15:01.078Z,54.79
2023-03-05T13:17:32.554Z,54.12
2023-03-05T13:20:01.472Z,54.96
2023-03-05T13:22:30.591Z,53.91
2023-03-05T13:25:20.597Z,53.88
2023-03-05T13:27:49.630Z,54.86
2023-03-05T13:30:25.339Z,56.19
2023-03-05T13:32:55.928Z,54.96
2023-03-05T13:35:24.056Z,55.86
2023-03-05T13:37:52.061Z,55.99
2023-03-05T13:40:23.360Z,55.53
2023-03-05T13:42:54.262Z,56.05
2023-03-05T13:45:26.177Z,55.54
2023-03-05T13:47:56.172Z,55.22
2023-03-05T13:50:27.009Z,56.10
2023-03-05T13:52:55.115Z,56.09
2023-03-05T13:55:23.099Z,55.79
2023-03-05T13:57:53.894Z,56.53
2023-03-05T14:00:34.567Z,56.04
2023-03-05T14:03:10.813Z,56.12
2023-03-05T14:05:43.606Z,56.20
2023-03-05T14:08:21.705Z,56.10
2023-03-05T14:10:49.808Z,56.49
2023-03-05T14:13:23.581Z,56.85
2023-03-05T14:16:05.530Z,57.27
2023-03-05T14:18:33.568Z,56.30
2023-03-05T14:21:07.557Z,56.17
2023-03-05T14:23:41.560Z,56.70
2023-03-05T14:26:23.878Z,56.80
2023-03-05T14:28:55.456Z,56.71
2023-03-05T14:31:25.235Z,57.47
2023-03-05T14:33:54.357Z,56.28
2023-03-05T14:36:25.486Z,57.41
2023-03-05T14:38:54.598Z,57.47
2023-03-05T14:41:40.194Z,57.14
2023-03-05T14:44:15.230Z,58.06
2023-03-05T14:46:43.516Z,57.37
2023-03-05T14:49:11.296Z,57.01
2023-03-05T14:51:41.608Z,56.96
2023-03-05T14:54:19.754Z,57.41
2023-03-05T14:56:47.954Z,57.03
2023-03-05T14:59:16.982Z,57.10
2023-03-05T15:01:45.015Z,57.40
2023-03-05T15:04:15.478Z,56.49
2023-03-05T15:06:48.015Z,57.72
2023-03-05T15:09:17.711Z,58.66
2023-03-05T15:11:45.625Z,58.12
2023-03-05T15:14:13.301Z,58.59
2023-03-05T15:16:45.058Z,58.50
2023-03-05T15:19:13.515Z,58.96
2023-03-05T15:21:41.545Z,58.89
2023-03-05T15:24:11.292Z,59.06
2023-03-05T15:26:39.417Z,59.62
2023-03-05T15:29:07.143Z,59.99
2023-03-05T15:31:38.408Z,59.68
2023-03-05T15:34:08.064Z,59.74
2023-03-05T15:36:35.744Z,58.92
2023-03-05T15:39:03.400Z,59.18
2023-03-05T15:41:31.019Z,59.75
2023-03-05T15:43:58.629Z,60.02
2023-03-05T15:46:26.307Z,59.97
2023-03-05T15:48:54.047Z,60.08
2023-03-05T15:51:23.081Z,60.09
2023-03-05T15:53:50.706Z,60.76
2023-03-05T15:56:19.340Z,60.42
2023-03-05T15:58:49.481Z,60.66
2023-03-05T16:01:19.177Z,60.31
2023-03-05T16:03:47.031Z,60.28
2023-03-05T16:06:16.500Z,60.45
2023-03-05T16:08:45.538Z,60.34
2023-03-05T16:11:14.115Z,60.82
2023-03-05T16:13:43.076Z,60.70
2023-03-05T16:16:11.390Z,60.33
2023-03-05T16:18:42.843Z,60.71
2023-03-05T16:21:11.394Z,60.06
2023-03-05T16:23:39.146Z,60.00
2023-03-05T16:26:09.060Z,60.74
2023-03-05T16:28:36.661Z,60.28
2023-03-05T16:31:04.461Z,60.51
2023-03-05T16:33:32.117Z,60.69
2023-03-05T16:36:25.339Z,61.02
2023-03-05T16:38:55.327Z,60.83
2023-03-05T16:41:26.612Z,61.31
2023-03-05T16:43:56.340Z,60.14
2023-03-05T16:46:24.470Z,60.17
2023-03-05T16:48:52.209Z,60.34
2023-03-05T16:51:20.890Z,60.26
2023-03-05T16:53:48.740Z,60.83
2023-03-05T16:56:16.457Z,60.79
2023-03-05T16:58:45.503Z,60.74
2023-03-05T17:01:15.401Z,61.13
2023-03-05T17:03:44.029Z,60.33
2023-03-05T17:06:14.013Z,60.61
2023-03-05T17:08:42.859Z,60.86
2023-03-05T17:11:12.336Z,60.80
2023-03-05T17:13:40.774Z,61.24
2023-03-05T17:16:11.811Z,61.45
2023-03-05T17:18:39.817Z,61.48
2023-03-05T17:21:08.139Z,61.37
2023-03-05T17:23:36.254Z,61.00
2023-03-05T17:26:05.105Z,61.13
2023-03-05T17:28:33.125Z,61.12
2023-03-05T17:31:01.404Z,61.89
2023-03-05T17:33:31.132Z,61.28
2023-03-05T17:35:58.971Z,61.16
2023-03-05T17:38:27.324Z,61.34
2023-03-05T17:40:55.258Z,60.93
2023-03-05T17:43:23.732Z,61.23
2023-03-05T17:45:51.549Z,61.85
2023-03-05T17:48:19.240Z,62.07
2023-03-05T17:50:48.231Z,61.75
2023-03-05T17:53:15.900Z,62.12
2023-03-05T17:55:44.019Z,62.06
2023-03-05T17:58:11.772Z,62.12
2023-03-05T18:00:39.604Z,62.16
2023-03-05T18:03:07.316Z,62.47
2023-03-05T18:05:35.393Z,62.20
2023-03-05T18:08:05.081Z,62.55
2023-03-05T18:10:33.380Z,62.34
2023-03-05T18:13:01.535Z,62.34
2023-03-05T18:15:30.496Z,62.06
2023-03-05T18:17:58.587Z,62.18
2023-03-05T18:20:30.197Z,62.40
2023-03-05T18:22:59.369Z,62.38
2023-03-05T18:25:31.274Z,62.16
2023-03-05T18:28:00.123Z,62.59
2023-03-05T18:30:29.123Z,61.92
2023-03-05T18:32:57.216Z,63.27
2023-03-05T18:35:25.086Z,63.64
2023-03-05T18:37:52.879Z,63.20
2023-03-05T18:40:22.690Z,62.59
2023-03-05T18:42:51.913Z,62.05
2023-03-05T18:45:22.533Z,62.22
2023-03-05T18:47:54.039Z,62.38
2023-03-05T18:50:23.071Z,62.49
2023-03-05T18:52:50.814Z,63.47
2023-03-05T18:55:20.281Z,64.09
2023-03-05T18:57:49.172Z,63.53
2023-03-05T19:00:20.373Z,63.45
2023-03-05T19:02:48.072Z,63.37
2023-03-05T19:05:16.732Z,63.03
2023-03-05T19:07:44.768Z,63.47
2023-03-05T19:10:14.289Z,63.58
2023-03-05T19:12:49.768Z,63.44
2023-03-05T19:15:19.197Z,63.85
2023-03-05T19:17:47.794Z,63.90
2023-03-05T19:20:17.021Z,63.46
2023-03-05T19:22:45.136Z,63.34
2023-03-05T19:25:13.702Z,63.30
2023-03-05T19:27:41.425Z,63.40
2023-03-05T19:30:12.758Z,63.89
2023-03-05T19:32:41.864Z,63.89
2023-03-05T19:35:10.530Z,63.81
2023-03-05T19:37:38.247Z,64.15
2023-03-05T19:40:07.176Z,64.01
2023-03-05T19:42:36.176Z,64.07
2023-03-05T19:45:04.070Z,64.16
2023-03-05T19:47:31.841Z,64.38
2023-03-05T19:50:00.940Z,64.00
2023-03-05T19:52:28.777Z,63.58
2023-03-05T19:54:56.968Z,63.64
2023-03-05T19:57:24.861Z,64.12
2023-03-05T19:59:53.490Z,64.50
2023-03-05T20:02:22.004Z,64.26
2023-03-05T20:04:49.971Z,64.41
2023-03-05T20:07:19.798Z,65.21
2023-03-05T20:09:48.852Z,64.32
2023-03-05T20:12:16.668Z,64.05
2023-03-05T20:14:44.325Z,64.71
2023-03-05T20:17:12.108Z,64.41
2023-03-05T20:19:39.896Z,64.56
2023-03-05T20:22:07.650Z,64.37
2023-03-05T20:24:37.302Z,64.31
2023-03-05T20:27:05.204Z,64.76
2023-03-05T20:29:32.947Z,64.39
2023-03-05T20:32:02.618Z,64.34
2023-03-05T20:34:31.437Z,64.53
2023-03-05T20:36:59.377Z,64.78
2023-03-05T20:39:27.230Z,64.91
2023-03-05T20:41:56.330Z,65.17
2023-03-05T20:44:24.304Z,65.47
2023-03-05T20:47:02.746Z,65.56
2023-03-05T20:49:30.516Z,65.83
2023-03-05T20:51:58.240Z,65.85
2023-03-05T20:54:27.296Z,66.02
2023-03-05T20:56:56.563Z,66.08
2023-03-05T20:59:24.753Z,66.19
2023-03-05T21:01:52.496Z,66.14
2023-03-05T21:04:20.300Z,66.59
2023-03-05T21:06:52.515Z,66.21
2023-03-05T21:09:20.102Z,66.51
2023-03-05T21:11:47.893Z,65.95
2023-03-05T21:14:16.913Z,65.82
2023-03-05T21:16:44.638Z,65.72
2023-03-05T21:19:12.359Z,65.66
2023-03-05T21:21:44.680Z,66.21
2023-03-05T21:24:12.684Z,65.85
2023-03-05T21:26:40.273Z,65.56
2023-03-05T21:29:07.952Z,65.37
2023-03-05T21:31:37.394Z,65.52
2023-03-05T21:34:05.121Z,65.23
2023-03-05T21:36:32.757Z,66.17
2023-03-05T21:39:00.696Z,65.84
2023-03-05T21:41:28.540Z,65.83
2023-03-05T21:43:56.266Z,66.06
2023-03-05T21:46:23.880Z,65.47
2023-03-05T21:48:53.073Z,65.60
2023-03-05T21:51:26.727Z,65.59
2023-03-05T21:53:54.594Z,65.59
2023-03-05T21:56:24.420Z,64.85
2023-03-05T21:58:52.736Z,64.82
2023-03-05T22:01:21.387Z,65.47
2023-03-05T22:03:50.430Z,66.46
2023-03-05T22:06:20.534Z,65.50
2023-03-05T22:08:48.630Z,65.24
2023-03-05T22:11:17.919Z,65.15
2023-03-05T22:13:45.788Z,65.20
2023-03-05T22:16:22.004Z,65.79
2023-03-05T22:18:49.621Z,65.42
2023-03-05T22:21:21.642Z,65.14
2023-03-05T22:23:49.729Z,64.91
2023-03-05T22:26:17.783Z,64.92
2023-03-05T22:28:45.548Z,64.63
2023-03-05T22:31:20.703Z,64.76
2023-03-05T22:33:48.532Z,65.09
2023-03-05T22:36:16.136Z,64.45
2023-03-05T22:38:45.521Z,64.33
2023-03-05T22:41:15.162Z,64.08
2023-03-05T22:43:43.051Z,64.10
2023-03-05T22:46:11.610Z,64.94
2023-03-05T22:48:39.542Z,64.72
2023-03-05T22:51:07.823Z,65.96
2023-03-05T22:53:35.692Z,64.79
2023-03-05T22:56:08.561Z,64.51
2023-03-05T22:58:36.912Z,64.47
2023-03-05T23:01:11.364Z,64.37
2023-03-05T23:03:39.106Z,64.46
2023-03-05T23:06:07.545Z,64.49
2023-03-05T23:08:35.650Z,64.47
2023-03-05T23:11:10.657Z,64.88
2023-03-05T23:13:38.413Z,64.24
2023-03-05T23:16:06.776Z,64.81
2023-03-05T23:18:34.792Z,64.50
2023-03-05T23:21:02.410Z,64.58
2023-03-05T23:23:30.210Z,64.86
2023-03-05T23:25:57.919Z,64.09
2023-03-05T23:28:26.995Z,64.37
2023-03-05T23:30:54.722Z,64.80
2023-03-05T23:33:24.722Z,64.90
2023-03-05T23:35:54.400Z,64.79
2023-03-05T23:38:23.482Z,64.67
2023-03-05T23:40:53.879Z,64.99
2023-03-05T23:43:24.511Z,64.56
2023-03-05T23:45:54.979Z,64.60
2023-03-05T23:48:23.728Z,64.98
2023-03-05T23:50:51.704Z,64.94
2023-03-05T23:53:21.434Z,65.12
2023-03-05T23:55:49.551Z,64.81
2023-03-05T23:58:18.929Z,64.65
